createdAt,value
2017-07-23T08:09:29.453Z,7.00
2017-07-23T08:11:56.215Z,5.40
2017-07-23T08:14:22.952Z,6.43
2017-07-23T08:16:49.751Z,6.20
2017-07-23T08:19:16.867Z,5.73
2017-07-23T08:21:43.624Z,7.50
2017-07-23T08:24:10.422Z,6.90
2017-07-23T08:26:37.193Z,7.13
2017-07-23T08:29:04.695Z,7.30
2017-07-23T08:31:31.498Z,7.10
2017-07-23T08:33:58.251Z,7.40
2017-07-23T08:36:25.010Z,9.40
2017-07-23T08:38:51.784Z,8.10
2017-07-23T08:41:18.570Z,8.60
2017-07-23T08:43:45.312Z,7.60
2017-07-23T08:46:12.094Z,7.00
2017-07-23T08:48:38.850Z,6.77
2017-07-23T08:51:05.603Z,8.00
2017-07-23T08:53:32.397Z,6.50
2017-07-23T08:55:59.186Z,8.50
2017-07-23T08:58:25.937Z,7.17
2017-07-23T09:00:52.738Z,7.60
2017-07-23T09:03:19.486Z,7.77
2017-07-23T09:05:46.227Z,8.47
2017-07-23T09:08:13.049Z,9.20
2017-07-23T09:10:40.317Z,8.00
2017-07-23T09:13:07.077Z,8.90
2017-07-23T09:15:33.870Z,8.40
2017-07-23T09:18:00.607Z,8.43
2017-07-23T09:20:27.351Z,8.67
2017-07-23T09:22:54.162Z,8.77
2017-07-23T09:25:20.911Z,7.93
2017-07-23T09:27:47.665Z,7.40
2017-07-23T09:30:14.462Z,5.77
2017-07-23T09:32:41.199Z,5.60
2017-07-23T09:35:07.945Z,7.17
2017-07-23T09:37:34.737Z,6.00
2017-07-23T09:40:01.480Z,5.87
2017-07-23T09:42:28.216Z,5.63
2017-07-23T09:44:55.018Z,6.80
2017-07-23T09:47:21.755Z,6.70
2017-07-23T09:49:48.522Z,5.97
2017-07-23T09:52:15.315Z,6.47
2017-07-23T09:54:42.055Z,7.47
2017-07-23T09:57:08.799Z,7.37
2017-07-23T09:59:35.597Z,7.33
2017-07-23T10:02:02.331Z,5.30
2017-07-23T10:04:29.179Z,5.10
2017-07-23T10:06:55.960Z,5.43
2017-07-23T10:09:22.714Z,5.20
2017-07-23T10:11:49.470Z,4.00
2017-07-23T10:14:16.250Z,4.10
2017-07-23T10:16:43.348Z,4.40
2017-07-23T10:19:10.859Z,4.73
2017-07-23T10:21:37.636Z,3.77
2017-07-23T10:24:05.027Z,4.57
2017-07-23T10:26:31.791Z,3.80
2017-07-23T10:28:58.582Z,3.53
2017-07-23T10:31:25.358Z,4.00
2017-07-23T10:33:52.114Z,3.90
2017-07-23T10:36:18.907Z,3.67
2017-07-23T10:38:45.643Z,3.17
2017-07-23T10:41:12.402Z,2.53
2017-07-23T10:43:39.183Z,3.67
2017-07-23T10:46:05.931Z,2.60
2017-07-23T10:48:32.679Z,2.13
2017-07-23T10:50:59.452Z,1.90
2017-07-23T10:53:26.188Z,1.87
2017-07-23T10:55:52.938Z,2.10
2017-07-23T10:58:19.740Z,1.90
2017-07-23T11:00:46.485Z,1.50
2017-07-23T11:03:13.232Z,1.40
2017-07-23T11:05:40.027Z,1.90
2017-07-23T11:08:06.779Z,1.20
2017-07-23T11:10:33.511Z,1.97
2017-07-23T11:13:00.310Z,1.60
2017-07-23T11:15:27.039Z,1.50
2017-07-23T11:17:53.798Z,1.93
2017-07-23T11:20:20.583Z,1.63
2017-07-23T11:22:47.320Z,1.70
2017-07-23T11:25:14.063Z,1.40
2017-07-23T11:27:40.862Z,1.60
2017-07-23T11:30:07.622Z,1.50
2017-07-23T11:32:34.381Z,1.50
2017-07-23T11:35:01.169Z,1.47
2017-07-23T11:37:27.928Z,1.50
2017-07-23T11:39:54.685Z,1.70
2017-07-23T11:42:21.696Z,1.47
2017-07-23T11:44:48.444Z,1.80
2017-07-23T11:47:15.202Z,1.43
2017-07-23T11:49:42.010Z,1.90
2017-07-23T11:52:08.764Z,1.77
2017-07-23T11:54:35.514Z,1.73
2017-07-23T11:57:02.301Z,1.77
2017-07-23T11:59:29.050Z,1.70
2017-07-23T12:01:56.573Z,1.70
2017-07-23T12:04:23.364Z,1.40
2017-07-23T12:06:50.125Z,1.60
2017-07-23T12:09:16.891Z,1.70
2017-07-23T12:11:44.290Z,2.20
2017-07-23T12:14:11.032Z,1.90
2017-07-23T12:16:37.813Z,2.20
2017-07-23T12:19:04.638Z,2.70
2017-07-23T12:21:31.410Z,2.70
2017-07-23T12:23:58.949Z,3.37
2017-07-23T12:26:25.742Z,3.20
2017-07-23T12:28:52.500Z,3.83
2017-07-23T12:31:19.260Z,3.47
2017-07-23T12:33:46.067Z,3.90
2017-07-23T12:36:13.182Z,3.90
2017-07-23T12:38:39.938Z,4.30
2017-07-23T12:41:06.728Z,3.77
2017-07-23T12:43:33.464Z,2.83
2017-07-23T12:46:00.222Z,2.50
2017-07-23T12:48:26.999Z,2.57
2017-07-23T12:50:53.765Z,3.00
2017-07-23T12:53:20.520Z,2.50
2017-07-23T12:55:47.299Z,3.20
2017-07-23T12:58:14.050Z,2.17
2017-07-23T13:00:40.817Z,3.20
2017-07-23T13:03:07.623Z,3.30
2017-07-23T13:05:34.385Z,2.80
2017-07-23T13:08:01.127Z,3.10
2017-07-23T13:10:27.909Z,2.93
2017-07-23T13:12:54.690Z,3.30
2017-07-23T13:15:21.432Z,2.87
2017-07-23T13:17:48.703Z,3.20
2017-07-23T13:20:15.461Z,3.07
2017-07-23T13:22:42.199Z,3.20
2017-07-23T13:25:09.014Z,3.00
2017-07-23T13:27:35.765Z,3.73
2017-07-23T13:30:02.559Z,3.30
2017-07-23T13:32:30.066Z,2.77
2017-07-23T13:34:56.851Z,3.37
2017-07-23T13:37:23.612Z,3.00
2017-07-23T13:39:50.407Z,3.13
2017-07-23T13:42:17.156Z,2.67
2017-07-23T13:44:43.892Z,3.23
2017-07-23T13:47:10.691Z,2.40
2017-07-23T13:49:37.447Z,2.97
2017-07-23T13:52:04.195Z,3.13
2017-07-23T13:54:30.986Z,2.67
2017-07-23T13:56:57.750Z,2.90
2017-07-23T13:59:24.525Z,3.27
2017-07-23T14:01:51.300Z,3.60
2017-07-23T14:04:18.593Z,2.50
2017-07-23T14:06:45.337Z,2.60
2017-07-23T14:09:12.111Z,2.93
2017-07-23T14:11:38.908Z,3.00
2017-07-23T14:14:05.656Z,3.00
2017-07-23T14:16:32.724Z,3.17
2017-07-23T14:18:59.468Z,3.97
2017-07-23T14:21:26.236Z,2.90
2017-07-23T14:23:53.047Z,3.13
2017-07-23T14:26:19.785Z,2.17
2017-07-23T14:28:46.555Z,2.53
2017-07-23T14:31:13.368Z,3.00
2017-07-23T14:33:40.254Z,2.80
2017-07-23T14:36:07.769Z,3.07
2017-07-23T14:38:35.036Z,2.83
2017-07-23T14:41:02.275Z,2.63
2017-07-23T14:43:29.146Z,3.30
2017-07-23T14:45:55.955Z,2.70
2017-07-23T14:48:22.734Z,3.57
2017-07-23T14:50:49.486Z,3.30
2017-07-23T14:53:17.051Z,2.90
2017-07-23T14:55:43.829Z,2.13
2017-07-23T14:58:11.300Z,3.20
2017-07-23T15:00:38.106Z,3.20
2017-07-23T15:03:05.551Z,2.90
2017-07-23T15:05:32.348Z,2.90
2017-07-23T15:07:59.484Z,3.60
2017-07-23T15:10:26.216Z,3.07
2017-07-23T15:12:52.980Z,3.20
2017-07-23T15:15:19.760Z,2.80
2017-07-23T15:17:47.624Z,4.00
2017-07-23T15:20:15.018Z,3.47
2017-07-23T15:22:41.825Z,3.80
2017-07-23T15:25:08.581Z,3.10
2017-07-23T15:27:35.331Z,3.23
2017-07-23T15:30:02.295Z,3.47
2017-07-23T15:32:29.090Z,3.10
2017-07-23T15:34:55.835Z,3.60
2017-07-23T15:37:23.230Z,3.20
2017-07-23T15:39:50.004Z,3.10
2017-07-23T15:42:16.751Z,3.30
2017-07-23T15:44:43.553Z,3.10
2017-07-23T15:47:10.295Z,3.13
2017-07-23T15:49:37.072Z,3.40
2017-07-23T15:52:03.880Z,3.50
2017-07-23T15:54:30.655Z,3.10
2017-07-23T15:56:57.403Z,3.47
2017-07-23T15:59:24.215Z,3.60
2017-07-23T16:01:50.951Z,3.33
2017-07-23T16:04:17.703Z,3.40
2017-07-23T16:06:44.478Z,3.40
2017-07-23T16:09:11.228Z,3.20
2017-07-23T16:11:37.990Z,3.23
2017-07-23T16:14:04.771Z,2.57
2017-07-23T16:16:31.536Z,3.00
2017-07-23T16:18:58.276Z,2.03
2017-07-23T16:21:25.076Z,2.07
2017-07-23T16:23:51.834Z,2.23
2017-07-23T16:26:18.598Z,1.97
2017-07-23T16:28:45.608Z,2.90
2017-07-23T16:31:12.351Z,4.13
2017-07-23T16:33:39.114Z,2.17
2017-07-23T16:36:05.906Z,2.27
2017-07-23T16:38:32.663Z,2.20
2017-07-23T16:40:59.417Z,2.07
2017-07-23T16:43:26.187Z,2.60
2017-07-23T16:45:52.944Z,2.30
2017-07-23T16:48:20.447Z,2.47
2017-07-23T16:50:47.322Z,2.20
2017-07-23T16:53:14.088Z,2.10
2017-07-23T16:55:40.841Z,2.30
2017-07-23T16:58:07.635Z,2.37
2017-07-23T17:00:34.393Z,2.00
2017-07-23T17:03:01.143Z,2.20
2017-07-23T17:05:28.807Z,2.30
2017-07-23T17:07:55.552Z,2.53
2017-07-23T17:10:22.311Z,2.43
2017-07-23T17:12:49.136Z,1.90
2017-07-23T17:15:15.918Z,2.43
2017-07-23T17:17:42.685Z,2.23
2017-07-23T17:20:09.476Z,2.80
2017-07-23T17:22:36.262Z,2.53
2017-07-23T17:25:02.994Z,3.60
2017-07-23T17:27:29.770Z,2.80
2017-07-23T17:29:56.507Z,2.07
2017-07-23T17:32:23.281Z,2.70
2017-07-23T17:34:50.052Z,2.90
2017-07-23T17:37:16.791Z,2.93
2017-07-23T17:39:43.554Z,2.70
2017-07-23T17:42:11.203Z,2.47
2017-07-23T17:44:38.114Z,2.30
2017-07-23T17:47:04.848Z,2.40
2017-07-23T17:49:31.650Z,2.30
2017-07-23T17:51:58.424Z,2.67
2017-07-23T17:54:25.175Z,2.60
2017-07-23T17:56:51.970Z,2.50
2017-07-23T17:59:18.729Z,2.40
2017-07-23T18:01:45.486Z,2.60
2017-07-23T18:04:12.267Z,2.70
2017-07-23T18:06:39.139Z,2.73
2017-07-23T18:09:05.894Z,2.77
2017-07-23T18:11:32.680Z,2.97
2017-07-23T18:13:59.430Z,3.40
2017-07-23T18:16:26.187Z,2.70
2017-07-23T18:18:52.964Z,3.10
2017-07-23T18:21:19.728Z,3.17
2017-07-23T18:23:47.115Z,3.07
2017-07-23T18:26:13.913Z,3.73
2017-07-23T18:28:40.985Z,3.50
2017-07-23T18:31:07.748Z,3.40
2017-07-23T18:33:34.545Z,3.10
2017-07-23T18:36:01.329Z,3.73
2017-07-23T18:38:28.089Z,3.27
2017-07-23T18:40:55.486Z,3.50
2017-07-23T18:43:22.780Z,3.20
2017-07-23T18:45:49.836Z,3.37
2017-07-23T18:48:17.192Z,3.00
2017-07-23T18:50:44.554Z,3.10
2017-07-23T18:53:11.917Z,3.70
2017-07-23T18:55:39.275Z,2.87
2017-07-23T18:58:06.636Z,3.43
2017-07-23T19:00:33.997Z,3.10
2017-07-23T19:03:02.048Z,3.20
2017-07-23T19:05:29.635Z,3.20
2017-07-23T19:07:57.610Z,3.53
2017-07-23T19:10:25.545Z,3.70
2017-07-23T19:12:52.946Z,3.53
2017-07-23T19:15:21.226Z,3.03
2017-07-23T19:17:49.593Z,3.57
2017-07-23T19:20:17.869Z,3.40
2017-07-23T19:22:45.513Z,4.00
2017-07-23T19:25:13.398Z,3.70
2017-07-23T19:27:41.506Z,3.50
2017-07-23T19:30:09.569Z,3.80
2017-07-23T19:32:38.327Z,3.70
2017-07-23T19:35:06.965Z,3.83
2017-07-23T19:37:34.589Z,4.03
2017-07-23T19:40:02.478Z,3.40
2017-07-23T19:42:30.232Z,3.90
2017-07-23T19:44:58.555Z,3.43
2017-07-23T19:47:26.220Z,3.20
2017-07-23T19:49:53.586Z,4.33
2017-07-23T19:52:20.946Z,4.20
2017-07-23T19:54:48.240Z,4.30
2017-07-23T19:57:15.361Z,4.43
2017-07-23T19:59:42.718Z,4.67
2017-07-23T20:02:10.387Z,3.73
2017-07-23T20:04:37.995Z,4.70
2017-07-23T20:07:05.106Z,4.30
2017-07-23T20:09:33.387Z,4.50
2017-07-23T20:12:00.746Z,4.10
2017-07-23T20:14:29.333Z,3.93
2017-07-23T20:16:56.692Z,4.53
2017-07-23T20:19:23.743Z,5.27
2017-07-23T20:21:50.799Z,4.47
2017-07-23T20:24:17.852Z,4.27
2017-07-23T20:26:44.604Z,4.10
2017-07-23T20:29:11.346Z,4.23
2017-07-23T20:31:38.158Z,4.13
2017-07-23T20:34:04.897Z,4.07
2017-07-23T20:36:31.651Z,3.97
2017-07-23T20:38:58.444Z,6.40
2017-07-23T20:41:25.199Z,3.97
2017-07-23T20:43:51.939Z,5.07
2017-07-23T20:46:18.730Z,4.90
2017-07-23T20:49:07.652Z,5.03
2017-07-23T20:51:34.706Z,4.97
2017-07-23T20:54:01.491Z,5.10
2017-07-23T20:56:29.000Z,4.97
2017-07-23T20:58:56.271Z,4.90
2017-07-23T21:01:23.465Z,5.03
2017-07-23T21:03:50.555Z,4.70
2017-07-23T21:06:17.745Z,5.47
2017-07-23T21:08:44.969Z,5.60
2017-07-23T21:11:12.480Z,5.97
2017-07-23T21:13:39.524Z,5.10
2017-07-23T21:16:07.050Z,5.10
2017-07-23T21:18:33.833Z,5.87
2017-07-23T21:21:01.291Z,4.93
2017-07-23T21:23:28.060Z,4.97
2017-07-23T21:25:55.174Z,5.53
2017-07-23T21:28:22.225Z,5.00
2017-07-23T21:30:49.877Z,4.50
2017-07-23T21:33:16.673Z,5.40
2017-07-23T21:35:43.882Z,4.97
2017-07-23T21:38:11.022Z,5.17
2017-07-23T21:40:37.997Z,5.07
2017-07-23T21:43:05.519Z,5.67
2017-07-23T21:45:33.208Z,4.97
2017-07-23T21:48:00.380Z,4.70
2017-07-23T21:50:27.160Z,5.20
2017-07-23T21:52:54.279Z,6.03
2017-07-23T21:55:21.078Z,5.00
2017-07-23T21:57:47.828Z,5.90
2017-07-23T22:00:14.576Z,5.30
2017-07-23T22:02:41.509Z,6.03
2017-07-23T22:05:08.417Z,5.53
2017-07-23T22:07:35.805Z,5.13
2017-07-23T22:10:02.662Z,5.40
2017-07-23T22:12:29.410Z,5.43
2017-07-23T22:14:56.896Z,5.23
2017-07-23T22:17:23.697Z,5.30
